Time;durP1;ratioP1;P1;durP2;ratioP2;P2;SDS_P1;SDS_P2;PMS_P1;PMS_P2;Temp;Humidity;BMP_temperature;BMP_pressure;BME280_temperature;BME280_humidity;BME280_pressure;Samples;Min_cycle;Max_cycle;Signal;HPM_P1;HPM_P2
2022/03/30 00:00:51;;;;;;;15.00;11.17;;;;;;;;;;5073266;28;20405;-63
2022/03/30 00:03:17;;;;;;;29.63;14.23;;;;;;;;;;5073005;28;20432;-63
2022/03/30 00:05:43;;;;;;;20.53;13.03;;;;;;;;;;5073195;28;20420;-63
2022/03/30 00:08:09;;;;;;;21.30;13.10;;;;;;;;;;5073218;28;20774;-63
2022/03/30 00:10:35;;;;;;;23.77;14.17;;;;;;;;;;5073007;28;20551;-63
2022/03/30 00:13:01;;;;;;;23.63;13.40;;;;;;;;;;5073144;28;20804;-63
2022/03/30 00:15:28;;;;;;;27.10;13.67;;;;;;;;;;5073081;28;20978;-64
2022/03/30 00:17:54;;;;;;;20.03;13.30;;;;;;;;;;5072897;28;20439;-63
2022/03/30 00:20:20;;;;;;;20.77;13.90;;;;;;;;;;5072892;28;20898;-65
2022/03/30 00:22:46;;;;;;;24.60;12.60;;;;;;;;;;5072928;28;20413;-65
2022/03/30 00:25:13;;;;;;;20.37;12.60;;;;;;;;;;5072994;28;20405;-64
2022/03/30 00:27:43;;;;;;;21.83;13.50;;;;;;;;;;5072805;28;20994;-64
2022/03/30 00:30:10;;;;;;;18.17;12.47;;;;;;;;;;5072667;28;20413;-63
2022/03/30 00:32:36;;;;;;;19.97;12.50;;;;;;;;;;5071287;28;20826;-63
2022/03/30 00:35:02;;;;;;;19.90;13.03;;;;;;;;;;5071539;28;20423;-64
2022/03/30 00:37:28;;;;;;;22.87;13.63;;;;;;;;;;5072649;28;20408;-63
2022/03/30 00:39:54;;;;;;;23.10;13.87;;;;;;;;;;5072611;28;20872;-65
2022/03/30 00:42:21;;;;;;;21.03;13.67;;;;;;;;;;5071467;28;20470;-65
2022/03/30 00:44:47;;;;;;;23.67;13.60;;;;;;;;;;5071335;28;20759;-64
2022/03/30 00:47:23;;;;;;;21.70;13.60;;;;;;;;;;5072617;28;20475;-63
2022/03/30 00:49:50;;;;;;;22.87;13.57;;;;;;;;;;5072671;28;20408;-63
2022/03/30 00:52:16;;;;;;;26.83;13.80;;;;;;;;;;5075984;28;20464;-63
2022/03/30 00:54:43;;;;;;;23.83;13.40;;;;;;;;;;5076622;28;20420;-64
2022/03/30 00:57:10;;;;;;;20.10;13.07;;;;;;;;;;5076352;28;20424;-63
2022/03/30 00:59:36;;;;;;;19.70;13.47;;;;;;;;;;5076469;28;20965;-63
2022/03/30 01:02:03;;;;;;;23.40;13.77;;;;;;;;;;5076517;28;20494;-64
2022/03/30 01:04:31;;;;;;;26.03;13.83;;;;;;;;;;5076571;28;20408;-65
2022/03/30 01:06:57;;;;;;;22.40;12.80;;;;;;;;;;5075121;28;20472;-65
2022/03/30 01:09:23;;;;;;;24.70;14.07;;;;;;;;;;5076204;28;20555;-64
2022/03/30 01:11:51;;;;;;;22.10;14.13;;;;;;;;;;5075075;28;20856;-64
2022/03/30 01:14:18;;;;;;;22.33;13.73;;;;;;;;;;5076177;28;20400;-63
2022/03/30 01:16:44;;;;;;;20.97;12.47;;;;;;;;;;5076057;28;20420;-64
2022/03/30 01:19:10;;;;;;;21.50;13.60;;;;;;;;;;5076100;28;20408;-63
2022/03/30 01:21:37;;;;;;;21.07;14.33;;;;;;;;;;5076015;28;20957;-64
2022/03/30 01:24:04;;;;;;;19.47;14.37;;;;;;;;;;5075938;28;20466;-64
2022/03/30 01:26:30;;;;;;;28.27;14.93;;;;;;;;;;5075755;28;20489;-63
2022/03/30 01:28:56;;;;;;;25.07;13.70;;;;;;;;;;5075804;28;20408;-64
2022/03/30 01:34:07;;;;;;;20.47;13.50;;;;;;;;;;5075998;28;20404;-63
2022/03/30 01:36:35;;;;;;;24.17;15.00;;;;;;;;;;5075582;28;20892;-66
2022/03/30 01:39:02;;;;;;;23.93;14.63;;;;;;;;;;5075629;28;20404;-64
2022/03/30 01:41:29;;;;;;;23.07;13.10;;;;;;;;;;5075784;28;20393;-63
2022/03/30 01:43:56;;;;;;;28.03;15.77;;;;;;;;;;5075600;28;20450;-63
2022/03/30 01:46:22;;;;;;;26.63;14.50;;;;;;;;;;5075567;28;20463;-62
2022/03/30 01:48:48;;;;;;;20.10;13.30;;;;;;;;;;5075574;28;20768;-62
2022/03/30 01:51:14;;;;;;;21.47;14.83;;;;;;;;;;5075423;28;20420;-62
2022/03/30 01:53:41;;;;;;;24.93;14.67;;;;;;;;;;5075258;28;20465;-62
2022/03/30 01:56:07;;;;;;;22.20;13.60;;;;;;;;;;5075336;28;20884;-62
2022/03/30 01:58:33;;;;;;;27.30;15.30;;;;;;;;;;5075143;28;20409;-62
2022/03/30 02:00:59;;;;;;;19.40;12.63;;;;;;;;;;5075109;28;20511;-62
2022/03/30 02:03:27;;;;;;;21.10;14.00;;;;;;;;;;5074972;28;20947;-64
2022/03/30 02:05:54;;;;;;;23.93;13.77;;;;;;;;;;5075176;28;20452;-62
2022/03/30 02:08:21;;;;;;;22.97;14.40;;;;;;;;;;5075132;28;20471;-63
2022/03/30 02:10:47;;;;;;;26.00;14.50;;;;;;;;;;5074913;28;20496;-62
2022/03/30 02:13:13;;;;;;;21.60;14.23;;;;;;;;;;5074959;28;20456;-63
2022/03/30 02:15:39;;;;;;;24.80;15.13;;;;;;;;;;5073862;28;20413;-63
2022/03/30 02:18:06;;;;;;;30.27;15.83;;;;;;;;;;5074940;28;20710;-63
2022/03/30 02:20:32;;;;;;;22.80;15.00;;;;;;;;;;5074949;28;20409;-63
2022/03/30 02:22:58;;;;;;;22.03;14.37;;;;;;;;;;5074749;28;20413;-63
2022/03/30 02:25:24;;;;;;;29.80;15.63;;;;;;;;;;5074910;28;20393;-63
2022/03/30 02:27:50;;;;;;;23.90;14.00;;;;;;;;;;5073438;28;20529;-63
2022/03/30 02:30:16;;;;;;;22.20;14.73;;;;;;;;;;5074759;28;20415;-63
2022/03/30 02:32:44;;;;;;;24.90;15.23;;;;;;;;;;5074572;28;20428;-62
2022/03/30 02:35:10;;;;;;;27.03;16.40;;;;;;;;;;5074721;28;20408;-63
2022/03/30 02:37:37;;;;;;;23.57;15.10;;;;;;;;;;5074621;28;20425;-63
2022/03/30 02:40:03;;;;;;;26.83;15.23;;;;;;;;;;5074453;28;20566;-63
2022/03/30 02:42:30;;;;;;;27.07;14.80;;;;;;;;;;5074418;28;20444;-63
2022/03/30 02:44:56;;;;;;;28.90;14.23;;;;;;;;;;5074501;28;20868;-64
2022/03/30 02:48:17;;;;;;;22.00;14.40;;;;;;;;;;5073226;28;20463;-63
2022/03/30 02:50:08;;;;;;;24.97;15.00;;;;;;;;;;5074313;28;20416;-64
2022/03/30 02:52:34;;;;;;;20.53;13.93;;;;;;;;;;5073068;28;20413;-63
2022/03/30 02:55:00;;;;;;;23.70;13.97;;;;;;;;;;5074292;28;20430;-64
2022/03/30 02:57:26;;;;;;;23.50;15.43;;;;;;;;;;5074330;28;20408;-64
2022/03/30 02:59:52;;;;;;;19.27;14.10;;;;;;;;;;5074368;28;20929;-74
2022/03/30 03:02:18;;;;;;;26.70;14.40;;;;;;;;;;5074066;28;20427;-75
2022/03/30 03:04:44;;;;;;;18.20;12.70;;;;;;;;;;5074277;28;20413;-75
2022/03/30 03:07:10;;;;;;;27.27;14.87;;;;;;;;;;5074034;28;20456;-75
2022/03/30 03:09:36;;;;;;;25.03;14.27;;;;;;;;;;5073915;28;20454;-74
2022/03/30 03:12:02;;;;;;;21.30;14.83;;;;;;;;;;5073972;28;20408;-73
2022/03/30 03:14:28;;;;;;;24.20;14.77;;;;;;;;;;5073225;28;20433;-74
2022/03/30 03:16:54;;;;;;;22.90;14.27;;;;;;;;;;5073782;28;20428;-74
2022/03/30 03:19:20;;;;;;;20.30;14.50;;;;;;;;;;5073885;28;20397;-74
2022/03/30 03:21:46;;;;;;;23.30;13.70;;;;;;;;;;5073887;28;20425;-72
2022/03/30 03:24:12;;;;;;;26.17;14.60;;;;;;;;;;5073900;28;20763;-73
2022/03/30 03:26:38;;;;;;;24.77;15.30;;;;;;;;;;5073828;28;20495;-73
2022/03/30 03:29:04;;;;;;;22.93;14.53;;;;;;;;;;5073810;28;20409;-74
2022/03/30 03:31:30;;;;;;;29.83;14.77;;;;;;;;;;5073855;28;20401;-74
2022/03/30 03:33:56;;;;;;;29.83;15.93;;;;;;;;;;5072485;28;20482;-74
2022/03/30 03:36:23;;;;;;;24.93;14.13;;;;;;;;;;5073289;28;20854;-75
2022/03/30 03:38:49;;;;;;;22.80;14.37;;;;;;;;;;5073644;28;20409;-73
2022/03/30 03:41:15;;;;;;;27.23;15.30;;;;;;;;;;5073776;28;20547;-75
2022/03/30 03:43:42;;;;;;;23.47;14.33;;;;;;;;;;5073539;28;20397;-75
2022/03/30 03:46:08;;;;;;;24.70;14.90;;;;;;;;;;5073507;28;20537;-68
2022/03/30 03:48:34;;;;;;;22.23;13.40;;;;;;;;;;5073392;28;20415;-63
2022/03/30 03:51:00;;;;;;;23.53;14.63;;;;;;;;;;5073204;28;20423;-63
2022/03/30 03:53:26;;;;;;;25.43;14.00;;;;;;;;;;5073383;28;20454;-64
2022/03/30 03:55:52;;;;;;;29.00;14.60;;;;;;;;;;5073062;28;20408;-63
2022/03/30 03:58:18;;;;;;;27.80;16.40;;;;;;;;;;5071994;28;20416;-65
2022/03/30 04:00:45;;;;;;;19.87;13.50;;;;;;;;;;5072034;28;20435;-63
2022/03/30 04:03:11;;;;;;;29.57;15.07;;;;;;;;;;5073300;28;20800;-67
2022/03/30 04:05:37;;;;;;;24.03;15.10;;;;;;;;;;5073208;28;20915;-71
2022/03/30 04:08:03;;;;;;;23.67;14.40;;;;;;;;;;5073208;28;20420;-74
2022/03/30 04:10:30;;;;;;;22.70;13.80;;;;;;;;;;5071631;28;20807;-68
2022/03/30 04:12:56;;;;;;;25.03;14.97;;;;;;;;;;5073381;28;20527;-65
2022/03/30 04:15:22;;;;;;;27.03;14.10;;;;;;;;;;5072956;28;20417;-72
2022/03/30 04:17:49;;;;;;;22.93;13.50;;;;;;;;;;5072982;28;20520;-73
2022/03/30 04:20:16;;;;;;;23.70;13.97;;;;;;;;;;5072931;28;20421;-71
2022/03/30 04:22:42;;;;;;;27.13;14.60;;;;;;;;;;5072930;28;20788;-66
2022/03/30 04:25:09;;;;;;;25.63;13.73;;;;;;;;;;5070995;28;20470;-71
2022/03/30 04:27:35;;;;;;;24.30;15.10;;;;;;;;;;5072624;28;20471;-73
2022/03/30 04:30:01;;;;;;;22.50;14.83;;;;;;;;;;5072881;28;20413;-67
2022/03/30 04:32:27;;;;;;;24.47;13.13;;;;;;;;;;5072702;28;20436;-74
2022/03/30 04:34:53;;;;;;;19.40;12.70;;;;;;;;;;5072760;28;20505;-74
2022/03/30 04:37:20;;;;;;;24.20;14.83;;;;;;;;;;5072735;28;20538;-63
2022/03/30 04:39:46;;;;;;;28.80;13.93;;;;;;;;;;5072723;28;20764;-67
2022/03/30 04:42:13;;;;;;;24.33;13.40;;;;;;;;;;5072730;28;20764;-67
2022/03/30 04:44:41;;;;;;;24.10;12.00;;;;;;;;;;5072546;28;20503;-64
2022/03/30 04:47:07;;;;;;;22.73;12.60;;;;;;;;;;5071242;28;20784;-62
2022/03/30 04:49:33;;;;;;;20.93;11.73;;;;;;;;;;5072674;28;20418;-62
2022/03/30 04:51:59;;;;;;;26.53;12.20;;;;;;;;;;5072752;28;20424;-63
2022/03/30 04:54:25;;;;;;;30.50;11.97;;;;;;;;;;5072628;28;20450;-65
2022/03/30 04:56:52;;;;;;;21.20;10.30;;;;;;;;;;5072607;28;21028;-62
2022/03/30 04:59:18;;;;;;;25.17;11.40;;;;;;;;;;5072707;28;20421;-66
2022/03/30 05:01:44;;;;;;;21.60;11.00;;;;;;;;;;5072576;28;20538;-70
2022/03/30 05:04:10;;;;;;;24.37;12.00;;;;;;;;;;5072525;28;20519;-68
2022/03/30 05:06:36;;;;;;;24.40;11.73;;;;;;;;;;5072585;28;20508;-70
2022/03/30 05:09:02;;;;;;;21.23;11.63;;;;;;;;;;5072471;28;21007;-71
2022/03/30 05:11:29;;;;;;;22.33;12.27;;;;;;;;;;5071380;28;20907;-69
2022/03/30 05:13:55;;;;;;;34.30;11.80;;;;;;;;;;5072532;28;20492;-72
2022/03/30 05:16:21;;;;;;;19.33;11.50;;;;;;;;;;5071144;28;20771;-68
2022/03/30 05:18:47;;;;;;;29.13;14.13;;;;;;;;;;5072544;28;20409;-69
2022/03/30 05:21:13;;;;;;;24.00;13.77;;;;;;;;;;5072524;28;20857;-71
2022/03/30 05:23:39;;;;;;;24.30;14.00;;;;;;;;;;5071354;28;20470;-75
2022/03/30 05:26:05;;;;;;;28.50;14.13;;;;;;;;;;5072513;28;20456;-67
2022/03/30 05:28:31;;;;;;;21.10;12.63;;;;;;;;;;5072478;28;20523;-65
2022/03/30 05:30:57;;;;;;;29.33;13.97;;;;;;;;;;5071345;28;20766;-64
2022/03/30 05:33:23;;;;;;;28.20;13.60;;;;;;;;;;5072401;28;20436;-69
2022/03/30 05:35:50;;;;;;;25.00;13.40;;;;;;;;;;5072434;28;20416;-63
2022/03/30 05:38:16;;;;;;;22.30;14.63;;;;;;;;;;5075716;28;20493;-67
2022/03/30 05:40:42;;;;;;;26.30;14.07;;;;;;;;;;5076347;28;20474;-68
2022/03/30 05:43:09;;;;;;;23.90;13.73;;;;;;;;;;5076089;28;20907;-76
2022/03/30 05:45:35;;;;;;;25.23;13.50;;;;;;;;;;5076094;28;20431;-65
2022/03/30 05:48:01;;;;;;;23.93;14.20;;;;;;;;;;5074878;28;20529;-69
2022/03/30 05:50:27;;;;;;;24.93;13.80;;;;;;;;;;5076141;28;20405;-65
2022/03/30 05:52:53;;;;;;;27.93;14.30;;;;;;;;;;5075888;28;20423;-68
2022/03/30 05:55:19;;;;;;;25.70;13.30;;;;;;;;;;5074885;28;20409;-63
2022/03/30 05:57:45;;;;;;;28.37;13.93;;;;;;;;;;5076052;28;20510;-74
2022/03/30 06:00:11;;;;;;;20.10;12.83;;;;;;;;;;5075880;28;20440;-69
2022/03/30 06:02:37;;;;;;;29.20;13.67;;;;;;;;;;5074852;28;20429;-75
2022/03/30 06:05:04;;;;;;;22.33;12.90;;;;;;;;;;5075766;28;20419;-74
2022/03/30 06:07:30;;;;;;;24.83;15.70;;;;;;;;;;5075750;28;20471;-66
2022/03/30 06:09:56;;;;;;;24.77;14.60;;;;;;;;;;5075483;28;20546;-64
2022/03/30 06:12:24;;;;;;;24.60;14.33;;;;;;;;;;5075542;28;20507;-72
2022/03/30 06:14:51;;;;;;;27.90;13.83;;;;;;;;;;5075543;28;20801;-69
2022/03/30 06:17:18;;;;;;;31.90;15.27;;;;;;;;;;5075701;28;20520;-76
2022/03/30 06:19:45;;;;;;;24.90;14.03;;;;;;;;;;5075623;28;20900;-74
2022/03/30 06:22:11;;;;;;;24.93;14.20;;;;;;;;;;5075388;28;20411;-67
2022/03/30 06:24:42;;;;;;;32.87;14.23;;;;;;;;;;5073993;28;20828;-72
2022/03/30 06:27:09;;;;;;;27.37;14.00;;;;;;;;;;5075069;28;20460;-73
2022/03/30 06:29:36;;;;;;;23.13;14.17;;;;;;;;;;5075299;28;20436;-69
2022/03/30 06:32:03;;;;;;;28.10;14.80;;;;;;;;;;5075171;28;20472;-72
2022/03/30 06:34:29;;;;;;;27.43;12.53;;;;;;;;;;5075052;28;20401;-68
2022/03/30 06:36:55;;;;;;;24.13;13.70;;;;;;;;;;5075126;28;20539;-70
2022/03/30 06:39:21;;;;;;;35.77;14.13;;;;;;;;;;5073812;28;20421;-64
2022/03/30 06:41:48;;;;;;;19.33;12.20;;;;;;;;;;5075199;28;20420;-70
2022/03/30 06:44:14;;;;;;;25.00;14.40;;;;;;;;;;5074938;28;20409;-68
2022/03/30 06:46:40;;;;;;;27.40;14.60;;;;;;;;;;5074923;28;21026;-72
2022/03/30 06:49:07;;;;;;;22.00;13.00;;;;;;;;;;5074332;28;20456;-65
2022/03/30 06:51:33;;;;;;;25.67;13.67;;;;;;;;;;5075133;28;20408;-70
2022/03/30 06:53:59;;;;;;;22.77;13.30;;;;;;;;;;5074882;28;20420;-69
2022/03/30 06:56:26;;;;;;;25.67;13.80;;;;;;;;;;5074774;28;20895;-68
2022/03/30 06:58:52;;;;;;;25.20;13.20;;;;;;;;;;5074782;28;20405;-73
2022/03/30 07:01:18;;;;;;;29.17;13.53;;;;;;;;;;5074806;28;20431;-68
2022/03/30 07:03:44;;;;;;;28.87;12.93;;;;;;;;;;5074543;28;20519;-66
2022/03/30 07:06:10;;;;;;;23.17;14.03;;;;;;;;;;5074643;28;20532;-75
2022/03/30 07:11:22;;;;;;;23.63;12.43;;;;;;;;;;5074857;28;20768;-77
2022/03/30 07:13:48;;;;;;;30.20;13.03;;;;;;;;;;5074804;28;20538;-69
2022/03/30 07:16:14;;;;;;;25.27;13.60;;;;;;;;;;5074418;28;20469;-72
2022/03/30 07:18:40;;;;;;;27.50;14.63;;;;;;;;;;5074397;28;20423;-65
2022/03/30 07:21:06;;;;;;;23.07;13.07;;;;;;;;;;5074454;28;20420;-64
2022/03/30 07:23:32;;;;;;;28.43;13.27;;;;;;;;;;5074373;28;20896;-71
2022/03/30 07:26:00;;;;;;;27.20;14.67;;;;;;;;;;5072833;28;20424;-64
2022/03/30 07:28:26;;;;;;;27.90;13.63;;;;;;;;;;5074212;28;20412;-71
2022/03/30 07:30:53;;;;;;;20.10;12.57;;;;;;;;;;5074140;28;20417;-71
2022/03/30 07:33:20;;;;;;;29.27;12.87;;;;;;;;;;5074029;28;20436;-66
2022/03/30 07:35:46;;;;;;;22.53;13.33;;;;;;;;;;5072869;28;20401;-68
2022/03/30 07:38:16;;;;;;;24.37;13.13;;;;;;;;;;5074288;28;21029;-72
2022/03/30 07:40:42;;;;;;;25.90;14.17;;;;;;;;;;5074012;28;20438;-75
2022/03/30 07:43:09;;;;;;;28.90;14.57;;;;;;;;;;5072724;28;20415;-69
2022/03/30 07:45:35;;;;;;;32.13;15.27;;;;;;;;;;5074814;28;20400;-64
2022/03/30 07:48:01;;;;;;;36.00;15.20;;;;;;;;;;5073955;28;20550;-75
2022/03/30 07:50:28;;;;;;;30.93;14.97;;;;;;;;;;5073850;28;20409;-71
2022/03/30 07:52:54;;;;;;;27.87;13.90;;;;;;;;;;5073605;28;20435;-70
2022/03/30 07:55:20;;;;;;;25.40;14.30;;;;;;;;;;5073674;28;20491;-71
2022/03/30 07:57:46;;;;;;;29.90;14.23;;;;;;;;;;5072527;28;20467;-65
2022/03/30 08:00:17;;;;;;;31.00;15.33;;;;;;;;;;5073352;28;20405;-72
2022/03/30 08:02:46;;;;;;;23.03;13.83;;;;;;;;;;5073472;28;20486;-66
2022/03/30 08:05:13;;;;;;;25.73;13.43;;;;;;;;;;5073481;28;20435;-75
2022/03/30 08:07:49;;;;;;;27.87;13.93;;;;;;;;;;5073381;28;20460;-64
2022/03/30 08:10:15;;;;;;;31.97;14.60;;;;;;;;;;5073330;28;20525;-67
2022/03/30 08:12:41;;;;;;;30.10;13.97;;;;;;;;;;5073375;28;20783;-71
2022/03/30 08:15:08;;;;;;;29.33;11.70;;;;;;;;;;5073353;28;20432;-65
2022/03/30 08:17:34;;;;;;;29.50;13.60;;;;;;;;;;5072255;28;20421;-68
2022/03/30 08:20:01;;;;;;;31.60;14.20;;;;;;;;;;5073352;28;20404;-69
2022/03/30 08:22:28;;;;;;;25.70;12.93;;;;;;;;;;5073290;28;20409;-67
2022/03/30 08:24:54;;;;;;;28.60;13.33;;;;;;;;;;5073411;28;20466;-66
2022/03/30 08:27:21;;;;;;;32.57;12.77;;;;;;;;;;5073304;28;20456;-72
2022/03/30 08:29:48;;;;;;;20.30;12.03;;;;;;;;;;5073436;28;20427;-66
2022/03/30 08:32:15;;;;;;;28.00;13.53;;;;;;;;;;5073034;28;21025;-73
2022/03/30 08:34:41;;;;;;;23.27;13.60;;;;;;;;;;5073264;28;20403;-68
2022/03/30 08:37:07;;;;;;;31.90;13.33;;;;;;;;;;5072106;28;20439;-69
2022/03/30 08:39:35;;;;;;;26.43;14.23;;;;;;;;;;5073206;28;20407;-67
2022/03/30 08:42:02;;;;;;;26.97;12.43;;;;;;;;;;5073097;28;20416;-66
2022/03/30 08:44:28;;;;;;;23.20;13.67;;;;;;;;;;5073081;28;20868;-71
2022/03/30 08:46:54;;;;;;;21.10;13.13;;;;;;;;;;5072984;28;20487;-73
2022/03/30 08:49:20;;;;;;;29.30;12.67;;;;;;;;;;5073039;28;20407;-69
2022/03/30 08:51:50;;;;;;;29.30;13.50;;;;;;;;;;5072925;28;20907;-68
2022/03/30 08:54:17;;;;;;;24.73;12.67;;;;;;;;;;5073038;28;20416;-66
2022/03/30 08:56:43;;;;;;;29.37;14.23;;;;;;;;;;5072939;28;20850;-64
2022/03/30 08:59:11;;;;;;;31.60;15.10;;;;;;;;;;5073969;28;20486;-72
2022/03/30 09:01:41;;;;;;;33.53;13.20;;;;;;;;;;5073858;28;20409;-64
2022/03/30 09:04:09;;;;;;;31.10;13.77;;;;;;;;;;5072947;28;20412;-72
2022/03/30 09:06:41;;;;;;;33.30;13.00;;;;;;;;;;5072765;28;20813;-68
2022/03/30 09:09:08;;;;;;;25.10;11.43;;;;;;;;;;5071636;28;20452;-64
2022/03/30 09:11:53;;;;;;;27.37;12.70;;;;;;;;;;5073442;28;20841;-67
2022/03/30 09:14:21;;;;;;;26.00;11.90;;;;;;;;;;5076916;28;20399;-69
2022/03/30 09:16:48;;;;;;;25.83;13.20;;;;;;;;;;5076895;28;20489;-71
2022/03/30 09:19:15;;;;;;;23.53;12.50;;;;;;;;;;5075493;28;20401;-65
2022/03/30 09:21:46;;;;;;;26.07;12.23;;;;;;;;;;5076807;28;20784;-67
2022/03/30 09:24:13;;;;;;;31.93;13.83;;;;;;;;;;5076665;28;20824;-71
2022/03/30 09:26:39;;;;;;;33.53;12.30;;;;;;;;;;5076553;28;20460;-67
2022/03/30 09:29:07;;;;;;;21.70;11.73;;;;;;;;;;5076571;28;20400;-71
2022/03/30 09:31:34;;;;;;;22.80;12.43;;;;;;;;;;5076983;28;20896;-78
2022/03/30 09:34:05;;;;;;;20.33;11.90;;;;;;;;;;5076756;28;20413;-74
2022/03/30 09:36:32;;;;;;;34.60;12.50;;;;;;;;;;5077203;28;20423;-71
2022/03/30 09:38:58;;;;;;;35.20;12.00;;;;;;;;;;5078143;28;20405;-69
2022/03/30 09:41:24;;;;;;;27.77;12.73;;;;;;;;;;5078272;28;20461;-70
2022/03/30 09:44:01;;;;;;;31.20;12.13;;;;;;;;;;5076855;28;20428;-72
2022/03/30 09:46:28;;;;;;;30.57;12.50;;;;;;;;;;5076593;28;20448;-70
2022/03/30 09:48:54;;;;;;;21.47;10.93;;;;;;;;;;5076562;28;20900;-72
2022/03/30 09:51:21;;;;;;;24.77;11.23;;;;;;;;;;5076216;28;20400;-67
2022/03/30 09:53:48;;;;;;;23.37;11.13;;;;;;;;;;5076206;28;20412;-77
2022/03/30 09:56:15;;;;;;;24.97;11.40;;;;;;;;;;5076192;28;20891;-71
2022/03/30 09:58:42;;;;;;;26.40;11.30;;;;;;;;;;5076477;28;20417;-73
2022/03/30 10:01:17;;;;;;;23.77;11.97;;;;;;;;;;5076233;28;20413;-75
2022/03/30 10:03:48;;;;;;;29.17;12.00;;;;;;;;;;5076546;28;20463;-67
2022/03/30 10:06:28;;;;;;;20.87;10.60;;;;;;;;;;5076956;28;20507;-65
2022/03/30 10:08:54;;;;;;;26.17;12.17;;;;;;;;;;5079176;28;20416;-75
2022/03/30 10:11:21;;;;;;;17.50;11.67;;;;;;;;;;5076696;28;20941;-78
2022/03/30 10:13:54;;;;;;;24.93;11.27;;;;;;;;;;5075718;28;20506;-71
2022/03/30 10:16:20;;;;;;;16.03;10.83;;;;;;;;;;5075696;28;20420;-79
2022/03/30 10:18:48;;;;;;;26.40;12.13;;;;;;;;;;5075766;28;20972;-74
2022/03/30 10:21:23;;;;;;;23.30;11.27;;;;;;;;;;5075774;28;20470;-80
2022/03/30 10:23:58;;;;;;;19.77;11.13;;;;;;;;;;5075622;28;20409;-79
2022/03/30 10:26:43;;;;;;;19.60;10.73;;;;;;;;;;5075756;28;20499;-77
2022/03/30 10:29:11;;;;;;;15.87;10.70;;;;;;;;;;5075552;28;20929;-77
2022/03/30 10:31:37;;;;;;;30.10;13.57;;;;;;;;;;5075466;28;20432;-79
2022/03/30 10:34:23;;;;;;;21.63;10.80;;;;;;;;;;5075422;28;20425;-66
2022/03/30 10:36:58;;;;;;;20.93;11.50;;;;;;;;;;5075111;28;20773;-65
2022/03/30 10:39:27;;;;;;;25.57;12.10;;;;;;;;;;5075248;28;20388;-67
2022/03/30 10:41:54;;;;;;;24.70;10.97;;;;;;;;;;5075275;28;20497;-64
2022/03/30 10:44:34;;;;;;;17.00;9.93;;;;;;;;;;5075198;28;20896;-67
2022/03/30 10:47:17;;;;;;;24.30;11.57;;;;;;;;;;5074998;28;20815;-63
2022/03/30 10:49:44;;;;;;;18.20;12.10;;;;;;;;;;5075060;28;20491;-66
2022/03/30 10:52:29;;;;;;;26.07;12.00;;;;;;;;;;5075018;28;20413;-67
2022/03/30 10:55:31;;;;;;;19.50;11.43;;;;;;;;;;5074839;28;20478;-64
2022/03/30 10:58:03;;;;;;;22.60;10.83;;;;;;;;;;5072772;28;20415;-66
2022/03/30 11:00:36;;;;;;;23.70;11.17;;;;;;;;;;5074384;28;20760;-66
2022/03/30 11:03:17;;;;;;;18.17;10.70;;;;;;;;;;5074596;28;20419;-66
2022/03/30 11:05:45;;;;;;;19.07;11.00;;;;;;;;;;5073519;28;20446;-67
2022/03/30 11:08:29;;;;;;;23.73;11.13;;;;;;;;;;5074489;28;20472;-63
2022/03/30 11:10:55;;;;;;;17.67;10.60;;;;;;;;;;5074428;28;20809;-65
2022/03/30 11:13:25;;;;;;;17.23;10.50;;;;;;;;;;5074514;28;20484;-66
2022/03/30 11:16:00;;;;;;;20.10;11.93;;;;;;;;;;5074409;28;20492;-71
2022/03/30 11:18:29;;;;;;;23.73;10.73;;;;;;;;;;5074291;28;20487;-63
2022/03/30 11:21:11;;;;;;;28.07;11.67;;;;;;;;;;5074426;28;20405;-64
2022/03/30 11:23:37;;;;;;;20.33;10.30;;;;;;;;;;5074447;28;20771;-64
2022/03/30 11:26:03;;;;;;;25.70;12.20;;;;;;;;;;5074307;28;20408;-68
2022/03/30 11:28:40;;;;;;;19.10;10.23;;;;;;;;;;5074233;28;20416;-69
2022/03/30 11:31:22;;;;;;;23.30;11.70;;;;;;;;;;5072942;28;20458;-65
2022/03/30 11:34:07;;;;;;;22.00;11.17;;;;;;;;;;5074243;28;20416;-69
2022/03/30 11:36:33;;;;;;;23.83;13.07;;;;;;;;;;5074038;28;20466;-65
2022/03/30 11:39:01;;;;;;;22.63;11.10;;;;;;;;;;5073015;28;20417;-65
2022/03/30 11:41:27;;;;;;;25.97;12.57;;;;;;;;;;5074158;28;20463;-67
2022/03/30 11:46:38;;;;;;;16.60;11.60;;;;;;;;;;5074219;28;20503;-64
2022/03/30 11:49:06;;;;;;;19.43;11.33;;;;;;;;;;5073967;28;20831;-65
2022/03/30 11:51:32;;;;;;;20.27;12.80;;;;;;;;;;5073838;28;20444;-63
2022/03/30 11:54:20;;;;;;;14.83;10.57;;;;;;;;;;5073815;28;20413;-63
2022/03/30 11:56:47;;;;;;;25.93;12.47;;;;;;;;;;5073593;28;20389;-64
2022/03/30 11:59:13;;;;;;;19.90;13.83;;;;;;;;;;5073631;28;20482;-63
2022/03/30 12:01:39;;;;;;;26.30;12.70;;;;;;;;;;5073494;28;20923;-63
2022/03/30 12:04:05;;;;;;;24.93;12.80;;;;;;;;;;5072270;28;20485;-63
2022/03/30 12:06:31;;;;;;;27.37;12.20;;;;;;;;;;5073522;28;20452;-64
2022/03/30 12:09:00;;;;;;;21.97;12.37;;;;;;;;;;5073136;28;20428;-64
2022/03/30 12:11:29;;;;;;;21.33;12.77;;;;;;;;;;5073460;28;20512;-67
2022/03/30 12:13:56;;;;;;;27.20;13.70;;;;;;;;;;5073485;28;20408;-65
2022/03/30 12:16:23;;;;;;;21.40;12.53;;;;;;;;;;5073862;28;20408;-67
2022/03/30 12:18:50;;;;;;;20.90;14.10;;;;;;;;;;5073766;28;20401;-65
2022/03/30 12:21:20;;;;;;;24.70;14.27;;;;;;;;;;5073327;28;20399;-65
2022/03/30 12:24:07;;;;;;;21.63;14.07;;;;;;;;;;5073432;28;20475;-66
2022/03/30 12:26:33;;;;;;;23.27;14.33;;;;;;;;;;5073391;28;20464;-66
2022/03/30 12:29:08;;;;;;;25.30;14.93;;;;;;;;;;5073352;28;20401;-64
2022/03/30 12:31:34;;;;;;;21.70;14.30;;;;;;;;;;5071947;28;20452;-66
2022/03/30 12:34:07;;;;;;;19.13;13.43;;;;;;;;;;5072568;28;20413;-64
2022/03/30 12:36:39;;;;;;;19.93;13.50;;;;;;;;;;5073248;28;20450;-65
2022/03/30 12:39:14;;;;;;;13.27;9.43;;;;;;;;;;5073098;28;20409;-66
2022/03/30 12:41:40;;;;;;;14.23;8.90;;;;;;;;;;5073080;28;20407;-64
2022/03/30 12:44:07;;;;;;;15.37;8.87;;;;;;;;;;5073084;28;20478;-65
2022/03/30 12:46:33;;;;;;;12.50;7.40;;;;;;;;;;5072117;28;20464;-64
2022/03/30 12:49:06;;;;;;;11.47;8.00;;;;;;;;;;5073070;28;20757;-63
2022/03/30 12:51:36;;;;;;;12.37;8.77;;;;;;;;;;5073165;28;20413;-64
2022/03/30 12:54:03;;;;;;;11.63;9.00;;;;;;;;;;5073236;28;20898;-66
2022/03/30 12:56:29;;;;;;;13.13;8.60;;;;;;;;;;5073027;28;20408;-66
2022/03/30 12:58:56;;;;;;;12.00;8.93;;;;;;;;;;5072990;28;20491;-65
2022/03/30 13:01:34;;;;;;;11.90;8.13;;;;;;;;;;5072888;28;20825;-66
2022/03/30 13:04:01;;;;;;;9.80;7.97;;;;;;;;;;5072880;28;20449;-65
2022/03/30 13:06:27;;;;;;;12.17;8.57;;;;;;;;;;5072688;28;20551;-64
2022/03/30 13:09:06;;;;;;;10.17;7.93;;;;;;;;;;5072522;28;20483;-65
2022/03/30 13:11:32;;;;;;;9.20;7.40;;;;;;;;;;5072681;28;20426;-64
2022/03/30 13:13:58;;;;;;;9.60;7.77;;;;;;;;;;5071571;28;20423;-64
2022/03/30 13:16:30;;;;;;;10.00;7.60;;;;;;;;;;5071304;28;20506;-64
2022/03/30 13:19:00;;;;;;;12.33;7.40;;;;;;;;;;5072811;28;20408;-65
2022/03/30 13:21:34;;;;;;;8.57;7.30;;;;;;;;;;5072650;28;20424;-63
2022/03/30 13:24:08;;;;;;;8.20;7.00;;;;;;;;;;5072905;28;20742;-64
2022/03/30 13:26:38;;;;;;;10.80;7.80;;;;;;;;;;5072611;28;20959;-65
2022/03/30 13:29:04;;;;;;;8.40;6.93;;;;;;;;;;5072664;28;20488;-65
2022/03/30 13:31:31;;;;;;;7.90;5.90;;;;;;;;;;5071161;28;20914;-65
2022/03/30 13:33:58;;;;;;;10.00;6.60;;;;;;;;;;5072520;28;20470;-64
2022/03/30 13:36:25;;;;;;;9.60;6.67;;;;;;;;;;5072333;28;20757;-66
2022/03/30 13:38:52;;;;;;;9.23;6.83;;;;;;;;;;5072633;28;20404;-63
2022/03/30 13:41:18;;;;;;;8.37;6.87;;;;;;;;;;5072468;28;20896;-65
2022/03/30 13:43:45;;;;;;;8.17;7.30;;;;;;;;;;5072510;28;20409;-65
2022/03/30 13:46:11;;;;;;;10.33;7.37;;;;;;;;;;5072553;28;20409;-65
2022/03/30 13:48:37;;;;;;;10.60;7.33;;;;;;;;;;5072616;28;20418;-66
2022/03/30 13:51:04;;;;;;;10.87;7.50;;;;;;;;;;5071289;28;20412;-64
2022/03/30 13:53:30;;;;;;;11.73;8.60;;;;;;;;;;5072520;28;20416;-65
2022/03/30 13:55:57;;;;;;;10.77;7.80;;;;;;;;;;5072328;28;20401;-66
2022/03/30 13:58:23;;;;;;;12.77;9.27;;;;;;;;;;5074060;28;20735;-64
2022/03/30 14:00:50;;;;;;;13.60;7.93;;;;;;;;;;5075836;28;20919;-65
2022/03/30 14:03:16;;;;;;;11.50;7.80;;;;;;;;;;5075616;28;20528;-63
2022/03/30 14:05:42;;;;;;;9.40;7.40;;;;;;;;;;5075793;28;20799;-64
2022/03/30 14:08:08;;;;;;;9.27;7.37;;;;;;;;;;5075566;28;20487;-63
2022/03/30 14:10:34;;;;;;;8.33;6.50;;;;;;;;;;5075436;28;20448;-64
2022/03/30 14:13:00;;;;;;;8.20;6.87;;;;;;;;;;5075697;28;20408;-68
2022/03/30 14:15:26;;;;;;;9.07;7.47;;;;;;;;;;5075571;28;20404;-64
2022/03/30 14:17:52;;;;;;;8.93;7.10;;;;;;;;;;5075553;28;20420;-65
2022/03/30 14:20:19;;;;;;;9.30;6.90;;;;;;;;;;5075697;28;20397;-63
2022/03/30 14:22:47;;;;;;;9.17;6.60;;;;;;;;;;5074188;28;20425;-64
2022/03/30 14:25:14;;;;;;;9.20;7.20;;;;;;;;;;5075452;28;20393;-64
2022/03/30 14:27:40;;;;;;;10.20;6.40;;;;;;;;;;5075191;28;20517;-63
2022/03/30 14:30:08;;;;;;;11.37;7.90;;;;;;;;;;5075469;28;20432;-64